sensor_id;sensor_type;location;lat;lon;timestamp;pressure;altitude;pressure_sealevel;temperature;humidity
81379;BME280;70830;42.290;-71.354;2023-06-26T00:02:18;100281.44;;;28.08;54.87
81379;BME280;70830;42.290;-71.354;2023-06-26T00:04:44;100284.69;;;28.04;55.22
81379;BME280;70830;42.290;-71.354;2023-06-26T00:07:11;100288.28;;;27.96;55.25
81379;BME280;70830;42.290;-71.354;2023-06-26T00:09:37;100295.97;;;27.93;56.26
81379;BME280;70830;42.290;-71.354;2023-06-26T00:12:03;100303.13;;;27.86;55.94
81379;BME280;70830;42.290;-71.354;2023-06-26T00:14:29;100298.81;;;27.77;56.23
81379;BME280;70830;42.290;-71.354;2023-06-26T00:16:55;100297.53;;;27.65;56.19
81379;BME280;70830;42.290;-71.354;2023-06-26T00:19:21;100304.06;;;27.55;56.51
81379;BME280;70830;42.290;-71.354;2023-06-26T00:21:47;100300.75;;;27.45;56.59
81379;BME280;70830;42.290;-71.354;2023-06-26T00:24:14;100304.53;;;27.36;57.22
81379;BME280;70830;42.290;-71.354;2023-06-26T00:26:40;100310.84;;;27.29;57.97
81379;BME280;70830;42.290;-71.354;2023-06-26T00:29:06;100304.97;;;27.17;57.96
81379;BME280;70830;42.290;-71.354;2023-06-26T00:31:32;100312.31;;;27.09;57.98
81379;BME280;70830;42.290;-71.354;2023-06-26T00:33:58;100316.91;;;27.00;58.35
81379;BME280;70830;42.290;-71.354;2023-06-26T00:36:23;100319.66;;;26.92;58.35
81379;BME280;70830;42.290;-71.354;2023-06-26T00:38:52;100324.44;;;26.82;58.88
81379;BME280;70830;42.290;-71.354;2023-06-26T00:41:18;100327.16;;;26.74;58.84
81379;BME280;70830;42.290;-71.354;2023-06-26T00:43:47;100332.41;;;26.67;59.34
81379;BME280;70830;42.290;-71.354;2023-06-26T00:46:13;100334.47;;;26.57;59.68
81379;BME280;70830;42.290;-71.354;2023-06-26T00:48:41;100332.81;;;26.48;59.77
81379;BME280;70830;42.290;-71.354;2023-06-26T00:51:08;100343.47;;;26.42;60.08
81379;BME280;70830;42.290;-71.354;2023-06-26T00:53:34;100338.75;;;26.36;60.36
81379;BME280;70830;42.290;-71.354;2023-06-26T00:56:01;100338.78;;;26.28;60.20
81379;BME280;70830;42.290;-71.354;2023-06-26T00:58:28;100338.78;;;26.20;60.64
81379;BME280;70830;42.290;-71.354;2023-06-26T01:00:54;100340.31;;;26.14;60.62
81379;BME280;70830;42.290;-71.354;2023-06-26T01:03:22;100352.63;;;26.08;61.37
81379;BME280;70830;42.290;-71.354;2023-06-26T01:05:51;100350.94;;;25.99;61.38
81379;BME280;70830;42.290;-71.354;2023-06-26T01:08:18;100355.34;;;25.92;61.80
81379;BME280;70830;42.290;-71.354;2023-06-26T01:10:45;100364.13;;;25.86;61.71
81379;BME280;70830;42.290;-71.354;2023-06-26T01:13:13;100369.19;;;25.81;61.89
81379;BME280;70830;42.290;-71.354;2023-06-26T01:15:41;100363.44;;;25.76;62.25
81379;BME280;70830;42.290;-71.354;2023-06-26T01:18:07;100372.53;;;25.67;62.68
81379;BME280;70830;42.290;-71.354;2023-06-26T01:20:37;100377.59;;;25.62;62.68
81379;BME280;70830;42.290;-71.354;2023-06-26T01:23:58;100374.56;;;25.57;62.98
81379;BME280;70830;42.290;-71.354;2023-06-26T01:26:32;100380.63;;;25.51;63.27
81379;BME280;70830;42.290;-71.354;2023-06-26T01:29:04;100373.84;;;25.47;62.70
81379;BME280;70830;42.290;-71.354;2023-06-26T01:31:31;100377.19;;;25.41;63.85
81379;BME280;70830;42.290;-71.354;2023-06-26T01:33:59;100372.28;;;25.36;64.02
81379;BME280;70830;42.290;-71.354;2023-06-26T01:36:25;100364.00;;;25.30;64.26
81379;BME280;70830;42.290;-71.354;2023-06-26T01:38:52;100370.06;;;25.24;64.18
81379;BME280;70830;42.290;-71.354;2023-06-26T01:41:18;100377.63;;;25.20;64.23
81379;BME280;70830;42.290;-71.354;2023-06-26T01:51:37;100398.63;;;25.01;65.01
81379;BME280;70830;42.290;-71.354;2023-06-26T01:54:05;100392.88;;;24.96;64.58
81379;BME280;70830;42.290;-71.354;2023-06-26T01:56:35;100390.81;;;24.90;65.04
81379;BME280;70830;42.290;-71.354;2023-06-26T01:59:05;100395.72;;;24.86;65.62
81379;BME280;70830;42.290;-71.354;2023-06-26T02:01:33;100393.63;;;24.80;65.84
81379;BME280;70830;42.290;-71.354;2023-06-26T02:03:59;100369.47;;;24.70;66.07
81379;BME280;70830;42.290;-71.354;2023-06-26T02:06:25;100380.41;;;24.69;66.68
81379;BME280;70830;42.290;-71.354;2023-06-26T02:08:51;100367.91;;;24.60;66.50
81379;BME280;70830;42.290;-71.354;2023-06-26T02:11:17;100378.84;;;24.58;67.00
81379;BME280;70830;42.290;-71.354;2023-06-26T02:13:43;100372.38;;;24.51;66.98
81379;BME280;70830;42.290;-71.354;2023-06-26T02:16:09;100373.56;;;24.49;67.09
81379;BME280;70830;42.290;-71.354;2023-06-26T02:18:35;100370.63;;;24.42;66.92
81379;BME280;70830;42.290;-71.354;2023-06-26T02:21:03;100371.97;;;24.38;67.64
81379;BME280;70830;42.290;-71.354;2023-06-26T02:23:29;100374.16;;;24.35;67.63
81379;BME280;70830;42.290;-71.354;2023-06-26T02:25:55;100364.81;;;24.29;67.66
81379;BME280;70830;42.290;-71.354;2023-06-26T02:28:21;100361.63;;;24.26;68.06
81379;BME280;70830;42.290;-71.354;2023-06-26T02:30:47;100362.78;;;24.23;68.04
81379;BME280;70830;42.290;-71.354;2023-06-26T02:33:13;100359.56;;;24.20;68.15
81379;BME280;70830;42.290;-71.354;2023-06-26T02:35:38;100358.31;;;24.14;68.43
81379;BME280;70830;42.290;-71.354;2023-06-26T02:38:04;100357.94;;;24.09;68.40
81379;BME280;70830;42.290;-71.354;2023-06-26T02:40:30;100353.00;;;24.04;68.79
81379;BME280;70830;42.290;-71.354;2023-06-26T02:42:56;100352.66;;;23.99;68.62
81379;BME280;70830;42.290;-71.354;2023-06-26T02:45:23;100353.09;;;23.95;69.27
81379;BME280;70830;42.290;-71.354;2023-06-26T02:47:49;100360.13;;;23.88;68.87
81379;BME280;70830;42.290;-71.354;2023-06-26T02:50:16;100359.72;;;23.83;69.45
81379;BME280;70830;42.290;-71.354;2023-06-26T02:52:42;100353.94;;;23.78;69.98
81379;BME280;70830;42.290;-71.354;2023-06-26T02:55:08;100349.88;;;23.74;70.06
81379;BME280;70830;42.290;-71.354;2023-06-26T02:57:34;100350.34;;;23.69;70.07
81379;BME280;70830;42.290;-71.354;2023-06-26T03:00:00;100348.28;;;23.63;69.80
81379;BME280;70830;42.290;-71.354;2023-06-26T03:02:26;100354.81;;;23.61;70.13
81379;BME280;70830;42.290;-71.354;2023-06-26T03:04:52;100352.28;;;23.59;70.32
81379;BME280;70830;42.290;-71.354;2023-06-26T03:07:18;100352.75;;;23.55;70.70
81379;BME280;70830;42.290;-71.354;2023-06-26T03:09:44;100352.06;;;23.53;70.36
81379;BME280;70830;42.290;-71.354;2023-06-26T03:12:10;100354.34;;;23.48;70.76
81379;BME280;70830;42.290;-71.354;2023-06-26T03:14:36;100353.84;;;23.44;70.60
81379;BME280;70830;42.290;-71.354;2023-06-26T03:17:02;100346.22;;;23.40;70.59
81379;BME280;70830;42.290;-71.354;2023-06-26T03:19:30;100356.97;;;23.40;70.97
81379;BME280;70830;42.290;-71.354;2023-06-26T03:21:56;100352.88;;;23.36;70.63
81379;BME280;70830;42.290;-71.354;2023-06-26T03:24:22;100360.53;;;23.30;71.09
81379;BME280;70830;42.290;-71.354;2023-06-26T03:26:47;100352.06;;;23.25;71.36
81379;BME280;70830;42.290;-71.354;2023-06-26T03:29:13;100364.84;;;23.23;71.17
81379;BME280;70830;42.290;-71.354;2023-06-26T03:31:39;100364.31;;;23.20;71.27
81379;BME280;70830;42.290;-71.354;2023-06-26T03:34:05;100361.06;;;23.16;71.23
81379;BME280;70830;42.290;-71.354;2023-06-26T03:36:31;100360.81;;;23.10;71.25
81379;BME280;70830;42.290;-71.354;2023-06-26T03:38:57;100363.09;;;23.05;71.32
81379;BME280;70830;42.290;-71.354;2023-06-26T03:41:23;100376.53;;;23.05;71.70
81379;BME280;70830;42.290;-71.354;2023-06-26T03:43:49;100368.78;;;23.02;72.27
81379;BME280;70830;42.290;-71.354;2023-06-26T03:46:15;100369.38;;;22.96;72.29
81379;BME280;70830;42.290;-71.354;2023-06-26T03:48:41;100367.84;;;22.93;72.36
81379;BME280;70830;42.290;-71.354;2023-06-26T03:51:07;100360.06;;;22.90;72.16
81379;BME280;70830;42.290;-71.354;2023-06-26T03:53:33;100356.13;;;22.85;72.30
81379;BME280;70830;42.290;-71.354;2023-06-26T03:55:59;100347.81;;;22.78;72.52
81379;BME280;70830;42.290;-71.354;2023-06-26T03:58:25;100350.13;;;22.73;72.89
81379;BME280;70830;42.290;-71.354;2023-06-26T04:00:51;100343.47;;;22.68;72.62
81379;BME280;70830;42.290;-71.354;2023-06-26T04:03:17;100339.25;;;22.65;72.83
81379;BME280;70830;42.290;-71.354;2023-06-26T04:05:43;100338.84;;;22.60;72.67
81379;BME280;70830;42.290;-71.354;2023-06-26T04:08:09;100338.84;;;22.60;72.78
81379;BME280;70830;42.290;-71.354;2023-06-26T04:10:35;100354.97;;;22.60;72.93
81379;BME280;70830;42.290;-71.354;2023-06-26T04:13:03;100357.06;;;22.56;73.05
81379;BME280;70830;42.290;-71.354;2023-06-26T04:15:29;100356.53;;;22.53;73.01
81379;BME280;70830;42.290;-71.354;2023-06-26T04:17:55;100357.50;;;22.52;73.35
81379;BME280;70830;42.290;-71.354;2023-06-26T04:20:21;100359.66;;;22.48;73.37
81379;BME280;70830;42.290;-71.354;2023-06-26T04:22:47;100359.09;;;22.45;73.10
81379;BME280;70830;42.290;-71.354;2023-06-26T04:25:13;100361.38;;;22.40;73.25
81379;BME280;70830;42.290;-71.354;2023-06-26T04:27:39;100364.06;;;22.40;73.52
81379;BME280;70830;42.290;-71.354;2023-06-26T04:30:05;100363.34;;;22.38;73.75
81379;BME280;70830;42.290;-71.354;2023-06-26T04:32:31;100352.91;;;22.35;73.26
81379;BME280;70830;42.290;-71.354;2023-06-26T04:34:58;100370.59;;;22.37;73.57
81379;BME280;70830;42.290;-71.354;2023-06-26T04:37:23;100369.31;;;22.32;73.96
81379;BME280;70830;42.290;-71.354;2023-06-26T04:39:50;100372.31;;;22.29;74.02
81379;BME280;70830;42.290;-71.354;2023-06-26T04:42:16;100369.03;;;22.25;74.04
81379;BME280;70830;42.290;-71.354;2023-06-26T04:44:45;100381.63;;;22.25;73.78
81379;BME280;70830;42.290;-71.354;2023-06-26T04:47:10;100380.22;;;22.21;73.76
81379;BME280;70830;42.290;-71.354;2023-06-26T04:49:36;100373.00;;;22.21;73.86
81379;BME280;70830;42.290;-71.354;2023-06-26T04:52:02;100370.50;;;22.20;74.36
81379;BME280;70830;42.290;-71.354;2023-06-26T04:54:28;100373.44;;;22.17;74.39
81379;BME280;70830;42.290;-71.354;2023-06-26T04:56:57;100372.91;;;22.13;73.85
81379;BME280;70830;42.290;-71.354;2023-06-26T04:59:25;100371.47;;;22.09;74.29
81379;BME280;70830;42.290;-71.354;2023-06-26T05:01:54;100364.53;;;22.07;74.18
81379;BME280;70830;42.290;-71.354;2023-06-26T05:04:20;100358.19;;;21.98;74.84
81379;BME280;70830;42.290;-71.354;2023-06-26T05:06:46;100377.16;;;21.97;74.46
81379;BME280;70830;42.290;-71.354;2023-06-26T05:09:11;100371.34;;;21.92;74.96
81379;BME280;70830;42.290;-71.354;2023-06-26T05:11:37;100372.34;;;21.91;74.42
81379;BME280;70830;42.290;-71.354;2023-06-26T05:14:03;100372.63;;;21.87;74.92
81379;BME280;70830;42.290;-71.354;2023-06-26T05:16:33;100383.09;;;21.91;74.68
81379;BME280;70830;42.290;-71.354;2023-06-26T05:18:59;100374.34;;;21.88;75.68
81379;BME280;70830;42.290;-71.354;2023-06-26T05:21:26;100384.06;;;21.89;75.20
81379;BME280;70830;42.290;-71.354;2023-06-26T05:23:56;100391.16;;;21.91;75.01
81379;BME280;70830;42.290;-71.354;2023-06-26T05:26:22;100381.38;;;21.89;74.97
81379;BME280;70830;42.290;-71.354;2023-06-26T05:28:48;100391.16;;;21.91;74.98
81379;BME280;70830;42.290;-71.354;2023-06-26T05:31:15;100381.38;;;21.89;75.04
81379;BME280;70830;42.290;-71.354;2023-06-26T05:33:44;100383.38;;;21.87;74.95
81379;BME280;70830;42.290;-71.354;2023-06-26T05:36:13;100378.28;;;21.84;75.02
81379;BME280;70830;42.290;-71.354;2023-06-26T05:38:41;100376.84;;;21.80;75.56
81379;BME280;70830;42.290;-71.354;2023-06-26T05:41:07;100373.44;;;21.78;75.32
81379;BME280;70830;42.290;-71.354;2023-06-26T05:43:33;100361.28;;;21.65;75.84
81379;BME280;70830;42.290;-71.354;2023-06-26T05:45:59;100373.44;;;21.69;75.88
81379;BME280;70830;42.290;-71.354;2023-06-26T05:48:25;100364.84;;;21.65;76.15
81379;BME280;70830;42.290;-71.354;2023-06-26T05:50:51;100383.06;;;21.71;75.79
81379;BME280;70830;42.290;-71.354;2023-06-26T05:53:17;100377.69;;;21.71;75.48
81379;BME280;70830;42.290;-71.354;2023-06-26T05:55:44;100379.53;;;21.71;75.87
81379;BME280;70830;42.290;-71.354;2023-06-26T05:58:10;100386.75;;;21.70;76.64
81379;BME280;70830;42.290;-71.354;2023-06-26T06:00:39;100394.91;;;21.69;76.36
81379;BME280;70830;42.290;-71.354;2023-06-26T06:03:05;100392.22;;;21.69;76.15
81379;BME280;70830;42.290;-71.354;2023-06-26T06:05:31;100385.88;;;21.70;76.40
81379;BME280;70830;42.290;-71.354;2023-06-26T06:07:57;100376.00;;;21.70;75.70
81379;BME280;70830;42.290;-71.354;2023-06-26T06:10:23;100378.38;;;21.73;76.03
81379;BME280;70830;42.290;-71.354;2023-06-26T06:12:49;100386.44;;;21.73;75.98
81379;BME280;70830;42.290;-71.354;2023-06-26T06:15:15;100378.81;;;21.69;76.27
81379;BME280;70830;42.290;-71.354;2023-06-26T06:17:41;100372.72;;;21.67;76.40
81379;BME280;70830;42.290;-71.354;2023-06-26T06:20:07;100370.34;;;21.64;76.73
81379;BME280;70830;42.290;-71.354;2023-06-26T06:22:33;100364.13;;;21.63;76.60
81379;BME280;70830;42.290;-71.354;2023-06-26T06:24:59;100383.88;;;21.62;76.03
81379;BME280;70830;42.290;-71.354;2023-06-26T06:27:27;100374.72;;;21.65;75.73
81379;BME280;70830;42.290;-71.354;2023-06-26T06:29:52;100366.97;;;21.62;75.80
81379;BME280;70830;42.290;-71.354;2023-06-26T06:32:18;100371.91;;;21.66;75.73
81379;BME280;70830;42.290;-71.354;2023-06-26T06:34:44;100369.22;;;21.66;75.98
81379;BME280;70830;42.290;-71.354;2023-06-26T06:37:10;100360.47;;;21.64;75.80
81379;BME280;70830;42.290;-71.354;2023-06-26T06:39:36;100353.66;;;21.60;75.40
81379;BME280;70830;42.290;-71.354;2023-06-26T06:42:02;100362.41;;;21.62;75.29
81379;BME280;70830;42.290;-71.354;2023-06-26T06:44:28;100356.34;;;21.60;75.08
81379;BME280;70830;42.290;-71.354;2023-06-26T06:46:56;100355.38;;;21.61;75.67
81379;BME280;70830;42.290;-71.354;2023-06-26T06:49:22;100357.34;;;21.59;75.05
81379;BME280;70830;42.290;-71.354;2023-06-26T06:51:47;100365.53;;;21.58;75.22
81379;BME280;70830;42.290;-71.354;2023-06-26T06:54:15;100372.88;;;21.56;75.42
81379;BME280;70830;42.290;-71.354;2023-06-26T06:56:42;100363.41;;;21.52;75.26
81379;BME280;70830;42.290;-71.354;2023-06-26T06:59:08;100361.59;;;21.52;75.20
81379;BME280;70830;42.290;-71.354;2023-06-26T07:01:33;100366.09;;;21.52;75.52
81379;BME280;70830;42.290;-71.354;2023-06-26T07:03:59;100361.84;;;21.49;75.72
81379;BME280;70830;42.290;-71.354;2023-06-26T07:06:25;100363.84;;;21.47;75.72
81379;BME280;70830;42.290;-71.354;2023-06-26T07:08:51;100364.41;;;21.51;76.01
81379;BME280;70830;42.290;-71.354;2023-06-26T07:11:17;100360.72;;;21.52;76.07
81379;BME280;70830;42.290;-71.354;2023-06-26T07:13:43;100371.63;;;21.50;75.27
81379;BME280;70830;42.290;-71.354;2023-06-26T07:16:09;100381.63;;;21.48;75.36
81379;BME280;70830;42.290;-71.354;2023-06-26T07:18:38;100377.53;;;21.44;75.84
81379;BME280;70830;42.290;-71.354;2023-06-26T07:21:04;100385.88;;;21.41;75.95
81379;BME280;70830;42.290;-71.354;2023-06-26T07:23:30;100381.75;;;21.37;76.23
81379;BME280;70830;42.290;-71.354;2023-06-26T07:25:55;100389.09;;;21.35;76.01
81379;BME280;70830;42.290;-71.354;2023-06-26T07:28:21;100388.09;;;21.36;76.01
81379;BME280;70830;42.290;-71.354;2023-06-26T07:30:47;100368.63;;;21.34;75.94
81379;BME280;70830;42.290;-71.354;2023-06-26T07:33:14;100381.63;;;21.39;75.86
81379;BME280;70830;42.290;-71.354;2023-06-26T07:35:39;100374.28;;;21.41;76.59
81379;BME280;70830;42.290;-71.354;2023-06-26T07:38:05;100375.69;;;21.45;76.35
81379;BME280;70830;42.290;-71.354;2023-06-26T07:40:31;100370.63;;;21.42;75.89
81379;BME280;70830;42.290;-71.354;2023-06-26T07:42:57;100375.41;;;21.38;76.26
81379;BME280;70830;42.290;-71.354;2023-06-26T07:45:24;100381.06;;;21.35;76.74
81379;BME280;70830;42.290;-71.354;2023-06-26T07:47:49;100375.09;;;21.32;76.30
81379;BME280;70830;42.290;-71.354;2023-06-26T07:50:15;100384.97;;;21.31;76.57
81379;BME280;70830;42.290;-71.354;2023-06-26T07:52:47;100379.91;;;21.28;76.56
81379;BME280;70830;42.290;-71.354;2023-06-26T07:55:13;100372.97;;;21.26;76.72
81379;BME280;70830;42.290;-71.354;2023-06-26T07:57:39;100368.59;;;21.25;76.92
81379;BME280;70830;42.290;-71.354;2023-06-26T08:00:05;100378.50;;;21.24;76.74
81379;BME280;70830;42.290;-71.354;2023-06-26T08:02:34;100381.88;;;21.26;76.89
81379;BME280;70830;42.290;-71.354;2023-06-26T08:05:00;100382.59;;;21.28;76.98
81379;BME280;70830;42.290;-71.354;2023-06-26T08:07:26;100377.09;;;21.30;76.85
81379;BME280;70830;42.290;-71.354;2023-06-26T08:09:51;100372.31;;;21.33;77.16
81379;BME280;70830;42.290;-71.354;2023-06-26T08:12:17;100370.44;;;21.34;77.07
81379;BME280;70830;42.290;-71.354;2023-06-26T08:14:43;100362.69;;;21.31;77.32
81379;BME280;70830;42.290;-71.354;2023-06-26T08:17:09;100361.84;;;21.30;76.87
81379;BME280;70830;42.290;-71.354;2023-06-26T08:19:35;100352.78;;;21.31;77.20
81379;BME280;70830;42.290;-71.354;2023-06-26T08:22:01;100351.13;;;21.30;77.25
81379;BME280;70830;42.290;-71.354;2023-06-26T08:24:26;100350.25;;;21.30;76.84
81379;BME280;70830;42.290;-71.354;2023-06-26T08:26:53;100341.38;;;21.29;77.22
81379;BME280;70830;42.290;-71.354;2023-06-26T08:29:19;100342.38;;;21.28;76.97
81379;BME280;70830;42.290;-71.354;2023-06-26T08:31:45;100341.38;;;21.29;77.41
81379;BME280;70830;42.290;-71.354;2023-06-26T08:34:11;100350.25;;;21.30;77.57
81379;BME280;70830;42.290;-71.354;2023-06-26T08:36:37;100357.44;;;21.29;76.93
81379;BME280;70830;42.290;-71.354;2023-06-26T08:39:04;100354.66;;;21.31;77.09
81379;BME280;70830;42.290;-71.354;2023-06-26T08:41:31;100356.34;;;21.32;77.21
81379;BME280;70830;42.290;-71.354;2023-06-26T08:43:57;100354.78;;;21.29;77.34
81379;BME280;70830;42.290;-71.354;2023-06-26T08:46:23;100357.44;;;21.29;77.21
81379;BME280;70830;42.290;-71.354;2023-06-26T08:48:54;100357.59;;;21.28;77.75
81379;BME280;70830;42.290;-71.354;2023-06-26T08:51:21;100366.66;;;21.27;77.14
81379;BME280;70830;42.290;-71.354;2023-06-26T08:54:04;100370.31;;;21.26;77.47
81379;BME280;70830;42.290;-71.354;2023-06-26T08:56:37;100368.03;;;21.21;78.12
81379;BME280;70830;42.290;-71.354;2023-06-26T08:59:04;100372.28;;;21.24;77.56
81379;BME280;70830;42.290;-71.354;2023-06-26T09:01:32;100372.28;;;21.24;77.71
81379;BME280;70830;42.290;-71.354;2023-06-26T09:03:58;100374.69;;;21.27;77.50
81379;BME280;70830;42.290;-71.354;2023-06-26T09:06:24;100378.34;;;21.26;78.00
81379;BME280;70830;42.290;-71.354;2023-06-26T09:08:50;100394.03;;;21.30;77.90
81379;BME280;70830;42.290;-71.354;2023-06-26T09:11:16;100386.97;;;21.29;77.66
81379;BME280;70830;42.290;-71.354;2023-06-26T09:13:42;100394.28;;;21.27;78.22
81379;BME280;70830;42.290;-71.354;2023-06-26T09:16:09;100388.09;;;21.27;77.64
81379;BME280;70830;42.290;-71.354;2023-06-26T09:18:35;100380.19;;;21.25;77.49
81379;BME280;70830;42.290;-71.354;2023-06-26T09:21:07;100387.81;;;21.30;77.45
81379;BME280;70830;42.290;-71.354;2023-06-26T09:23:34;100381.59;;;21.29;77.61
81379;BME280;70830;42.290;-71.354;2023-06-26T09:26:03;100396.84;;;21.29;77.57
81379;BME280;70830;42.290;-71.354;2023-06-26T09:28:30;100400.66;;;21.26;77.44
81379;BME280;70830;42.290;-71.354;2023-06-26T09:31:03;100407.84;;;21.26;77.71
81379;BME280;70830;42.290;-71.354;2023-06-26T09:33:34;100408.72;;;21.26;77.87
81379;BME280;70830;42.290;-71.354;2023-06-26T09:36:01;100412.66;;;21.32;77.31
81379;BME280;70830;42.290;-71.354;2023-06-26T09:38:30;100409.00;;;21.33;77.69
81379;BME280;70830;42.290;-71.354;2023-06-26T09:40:56;100405.19;;;21.35;76.95
81379;BME280;70830;42.290;-71.354;2023-06-26T09:43:21;100401.66;;;21.35;77.50
81379;BME280;70830;42.290;-71.354;2023-06-26T09:45:48;100409.56;;;21.36;77.44
81379;BME280;70830;42.290;-71.354;2023-06-26T09:48:14;100407.03;;;21.35;77.37
81379;BME280;70830;42.290;-71.354;2023-06-26T09:50:41;100404.91;;;21.38;77.47
81379;BME280;70830;42.290;-71.354;2023-06-26T09:53:11;100413.25;;;21.35;77.62
81379;BME280;70830;42.290;-71.354;2023-06-26T09:55:39;100419.16;;;21.39;77.36
81379;BME280;70830;42.290;-71.354;2023-06-26T09:58:13;100412.69;;;21.41;77.37
81379;BME280;70830;42.290;-71.354;2023-06-26T10:00:43;100414.38;;;21.42;77.30
81379;BME280;70830;42.290;-71.354;2023-06-26T10:03:10;100418.06;;;21.41;77.48
81379;BME280;70830;42.290;-71.354;2023-06-26T10:05:38;100418.91;;;21.42;77.05
81379;BME280;70830;42.290;-71.354;2023-06-26T10:08:05;100417.78;;;21.44;77.40
81379;BME280;70830;42.290;-71.354;2023-06-26T10:10:33;100417.50;;;21.47;77.52
81379;BME280;70830;42.290;-71.354;2023-06-26T10:13:05;100403.22;;;21.47;77.35
81379;BME280;70830;42.290;-71.354;2023-06-26T10:15:34;100395.47;;;21.53;77.00
81379;BME280;70830;42.290;-71.354;2023-06-26T10:18:01;100394.34;;;21.56;76.57
81379;BME280;70830;42.290;-71.354;2023-06-26T10:20:28;100400.00;;;21.62;76.47
81379;BME280;70830;42.290;-71.354;2023-06-26T10:22:55;100402.97;;;21.69;76.23
81379;BME280;70830;42.290;-71.354;2023-06-26T10:25:24;100399.84;;;21.73;76.44
81379;BME280;70830;42.290;-71.354;2023-06-26T10:27:59;100390.69;;;21.76;76.09
81379;BME280;70830;42.290;-71.354;2023-06-26T10:30:33;100393.78;;;21.81;75.97
81379;BME280;70830;42.290;-71.354;2023-06-26T10:33:00;100389.28;;;21.81;75.85
81379;BME280;70830;42.290;-71.354;2023-06-26T10:35:27;100390.25;;;21.80;75.83
81379;BME280;70830;42.290;-71.354;2023-06-26T10:38:02;100403.16;;;21.86;75.86
81379;BME280;70830;42.290;-71.354;2023-06-26T10:40:40;100407.97;;;21.93;75.57
81379;BME280;70830;42.290;-71.354;2023-06-26T10:43:07;100388.16;;;21.94;75.11
81379;BME280;70830;42.290;-71.354;2023-06-26T10:45:34;100399.31;;;21.99;75.25
81379;BME280;70830;42.290;-71.354;2023-06-26T10:48:03;100402.44;;;22.04;74.92
81379;BME280;70830;42.290;-71.354;2023-06-26T10:50:33;100414.59;;;22.08;74.47
81379;BME280;70830;42.290;-71.354;2023-06-26T10:55:58;100410.66;;;22.02;74.63
81379;BME280;70830;42.290;-71.354;2023-06-26T10:58:34;100425.34;;;22.08;74.48
81379;BME280;70830;42.290;-71.354;2023-06-26T11:03:45;100428.88;;;22.08;74.54
81379;BME280;70830;42.290;-71.354;2023-06-26T11:06:19;100429.72;;;22.09;74.36
81379;BME280;70830;42.290;-71.354;2023-06-26T11:08:46;100435.09;;;22.09;73.93
81379;BME280;70830;42.290;-71.354;2023-06-26T11:11:13;100441.28;;;22.09;74.97
81379;BME280;70830;42.290;-71.354;2023-06-26T11:13:40;100432.25;;;22.10;74.10
81379;BME280;70830;42.290;-71.354;2023-06-26T11:16:06;100437.78;;;22.09;74.26
81379;BME280;70830;42.290;-71.354;2023-06-26T11:18:32;100443.97;;;22.09;74.19
81379;BME280;70830;42.290;-71.354;2023-06-26T11:21:11;100433.81;;;22.13;74.00
81379;BME280;70830;42.290;-71.354;2023-06-26T11:23:41;100434.78;;;22.21;73.98
81379;BME280;70830;42.290;-71.354;2023-06-26T11:26:17;100438.72;;;22.27;74.40
81379;BME280;70830;42.290;-71.354;2023-06-26T11:28:50;100442.69;;;22.32;73.63
81379;BME280;70830;42.290;-71.354;2023-06-26T11:31:30;100454.69;;;22.38;73.13
81379;BME280;70830;42.290;-71.354;2023-06-26T11:33:57;100457.09;;;22.41;73.03
81379;BME280;70830;42.290;-71.354;2023-06-26T11:36:24;100463.31;;;22.51;72.77
81379;BME280;70830;42.290;-71.354;2023-06-26T11:38:55;100471.25;;;22.62;72.36
81379;BME280;70830;42.290;-71.354;2023-06-26T11:41:23;100472.94;;;22.73;72.37
81379;BME280;70830;42.290;-71.354;2023-06-26T11:43:51;100468.94;;;22.77;71.94
81379;BME280;70830;42.290;-71.354;2023-06-26T11:46:19;100470.34;;;22.71;71.99
81379;BME280;70830;42.290;-71.354;2023-06-26T11:48:45;100474.22;;;22.69;72.69
81379;BME280;70830;42.290;-71.354;2023-06-26T11:51:15;100468.25;;;22.75;72.19
81379;BME280;70830;42.290;-71.354;2023-06-26T11:53:42;100462.28;;;22.81;72.06
81379;BME280;70830;42.290;-71.354;2023-06-26T11:56:13;100455.06;;;22.81;72.08
81379;BME280;70830;42.290;-71.354;2023-06-26T11:59:01;100461.13;;;22.83;71.55
81379;BME280;70830;42.290;-71.354;2023-06-26T12:01:44;100460.28;;;22.83;72.08
81379;BME280;70830;42.290;-71.354;2023-06-26T12:04:12;100456.28;;;22.96;71.39
81379;BME280;70830;42.290;-71.354;2023-06-26T12:06:39;100461.19;;;23.10;71.46
81379;BME280;70830;42.290;-71.354;2023-06-26T12:09:08;100462.38;;;23.25;70.56
81379;BME280;70830;42.290;-71.354;2023-06-26T12:11:37;100452.00;;;23.40;70.25
81379;BME280;70830;42.290;-71.354;2023-06-26T12:14:04;100455.28;;;23.61;69.74
81379;BME280;70830;42.290;-71.354;2023-06-26T12:16:30;100466.34;;;23.76;69.71
81379;BME280;70830;42.290;-71.354;2023-06-26T12:19:04;100471.22;;;23.90;68.55
81379;BME280;70830;42.290;-71.354;2023-06-26T12:24:09;100475.22;;;23.86;68.52
81379;BME280;70830;42.290;-71.354;2023-06-26T12:26:36;100484.97;;;23.87;68.56
81379;BME280;70830;42.290;-71.354;2023-06-26T12:29:06;100493.22;;;23.85;68.81
81379;BME280;70830;42.290;-71.354;2023-06-26T12:31:33;100491.38;;;23.86;68.86
81379;BME280;70830;42.290;-71.354;2023-06-26T12:34:00;100486.69;;;23.88;68.80
81379;BME280;70830;42.290;-71.354;2023-06-26T12:36:26;100487.69;;;23.87;68.98
81379;BME280;70830;42.290;-71.354;2023-06-26T12:38:53;100492.25;;;23.86;68.35
81379;BME280;70830;42.290;-71.354;2023-06-26T12:41:20;100494.59;;;23.89;68.46
81379;BME280;70830;42.290;-71.354;2023-06-26T12:43:46;100503.94;;;23.95;68.26
81379;BME280;70830;42.290;-71.354;2023-06-26T12:46:12;100507.50;;;23.95;68.53
81379;BME280;70830;42.290;-71.354;2023-06-26T12:48:39;100512.16;;;23.93;68.01